Silleda, Spain
Current Conditions -  °F | °C
As of 5:00 AM on Wednesday 28 Jan 2015 (Local Time) from LEST Reporting Station
Broken Clouds Broken Clouds  
Wind Chill: 41°   Ceiling: 1900
Heat Index: 41°   Visibility: 6mi
Dew Point: 37°   Wind: 1mph
Humidity: 87%   Direction: NA
Pressure: 30.42"   Gusts: NA
Location:  42.7°N, 8.25°W
Report Text: LEST 280400Z VRB01KT 9999 BKN019 05/03 Q1030 NOSIG
Loading
Personal Weather Stations






























Interactive Weather Map New forecast layout! Learn more

10-Day Weather Forecast

Advertisements
Track Severe Weather on mobile